createdAt,value
2023-06-16T00:00:11.508Z,14.75
2023-06-16T00:02:45.313Z,17.90
2023-06-16T00:05:17.929Z,14.82
2023-06-16T00:07:49.800Z,13.75
2023-06-16T00:10:19.739Z,12.95
2023-06-16T00:12:49.547Z,13.55
2023-06-16T00:15:19.268Z,16.70
2023-06-16T00:17:51.284Z,16.08
2023-06-16T00:20:25.532Z,12.05
2023-06-16T00:22:56.168Z,14.95
2023-06-16T00:25:25.922Z,15.48
2023-06-16T00:27:55.544Z,15.35
2023-06-16T00:30:25.295Z,15.10
2023-06-16T00:32:54.979Z,17.95
2023-06-16T00:35:27.194Z,16.73
2023-06-16T00:37:56.781Z,13.77
2023-06-16T00:40:26.560Z,13.57
2023-06-16T00:42:59.821Z,16.38
2023-06-16T00:45:29.440Z,16.17
2023-06-16T00:47:59.638Z,12.13
2023-06-16T00:50:32.484Z,19.05
2023-06-16T00:53:03.023Z,14.77
2023-06-16T00:55:33.275Z,13.90
2023-06-16T00:58:04.067Z,14.65
2023-06-16T01:00:37.375Z,14.82
2023-06-16T01:03:10.269Z,14.13
2023-06-16T01:05:43.238Z,21.25
2023-06-16T01:08:19.042Z,13.88
2023-06-16T01:10:56.347Z,13.30
2023-06-16T01:13:29.842Z,12.88
2023-06-16T01:16:02.038Z,15.98
2023-06-16T01:18:33.324Z,13.15
2023-06-16T01:21:17.646Z,12.77
2023-06-16T01:24:03.588Z,12.75
2023-06-16T01:26:35.572Z,12.52
2023-06-16T01:29:09.679Z,15.23
2023-06-16T01:31:42.712Z,14.45
2023-06-16T01:34:15.176Z,14.48
2023-06-16T01:36:46.820Z,13.52
2023-06-16T01:39:20.391Z,14.07
2023-06-16T01:41:52.191Z,16.63
2023-06-16T01:44:22.560Z,16.00
2023-06-16T01:46:52.622Z,14.73
2023-06-16T01:49:22.970Z,13.90
2023-06-16T01:51:52.798Z,16.70
2023-06-16T01:54:25.030Z,14.85
2023-06-16T01:56:54.643Z,16.27
2023-06-16T01:59:24.281Z,14.68
2023-06-16T02:01:56.632Z,16.33
2023-06-16T02:04:28.097Z,15.60
2023-06-16T02:07:03.975Z,13.80
2023-06-16T02:09:38.634Z,17.45
2023-06-16T02:12:10.784Z,16.13
2023-06-16T02:14:40.611Z,17.23
2023-06-16T02:17:14.227Z,16.40
2023-06-16T02:19:44.528Z,17.17
2023-06-16T02:22:14.332Z,17.38
2023-06-16T02:24:46.829Z,16.45
2023-06-16T02:27:16.784Z,14.68
2023-06-16T02:29:47.647Z,18.77
2023-06-16T02:32:17.275Z,14.65
2023-06-16T02:34:48.032Z,15.88
2023-06-16T02:37:17.672Z,20.40
2023-06-16T02:39:50.251Z,17.23
2023-06-16T02:42:19.866Z,13.98
2023-06-16T02:44:49.445Z,16.63
2023-06-16T02:47:19.237Z,13.25
2023-06-16T02:49:50.164Z,12.90
2023-06-16T02:52:19.772Z,13.55
2023-06-16T02:54:51.943Z,14.13
2023-06-16T02:57:21.554Z,13.60
2023-06-16T02:59:51.400Z,13.85
2023-06-16T03:02:21.112Z,16.58
2023-06-16T03:04:50.770Z,14.55
2023-06-16T03:07:20.487Z,16.98
2023-06-16T03:09:52.749Z,12.30
2023-06-16T03:12:22.368Z,16.75
2023-06-16T03:14:51.998Z,13.27
2023-06-16T03:17:22.859Z,13.27
2023-06-16T03:19:52.627Z,15.23
2023-06-16T03:22:22.345Z,12.27
2023-06-16T03:24:55.050Z,12.52
2023-06-16T03:27:24.714Z,11.85
2023-06-16T03:29:54.348Z,11.43
2023-06-16T03:32:24.002Z,13.80
2023-06-16T03:34:54.620Z,14.35
2023-06-16T03:37:24.680Z,12.77
2023-06-16T03:39:57.188Z,15.00
2023-06-16T03:42:26.855Z,10.95
2023-06-16T03:44:56.504Z,10.52
2023-06-16T03:47:26.316Z,11.07
2023-06-16T03:49:56.022Z,11.20
2023-06-16T03:52:27.087Z,12.10
2023-06-16T03:54:59.361Z,14.45
2023-06-16T03:57:29.004Z,12.90
2023-06-16T03:59:58.640Z,12.60
2023-06-16T04:02:28.364Z,11.82
2023-06-16T04:04:58.399Z,11.85
2023-06-16T04:07:27.984Z,14.65
2023-06-16T04:10:00.391Z,12.88
2023-06-16T04:12:30.003Z,12.18
2023-06-16T04:14:59.619Z,10.75
2023-06-16T04:17:29.271Z,12.90
2023-06-16T04:19:58.876Z,11.35
2023-06-16T04:22:28.507Z,11.65
2023-06-16T04:25:00.791Z,11.82
2023-06-16T04:27:33.507Z,12.60
2023-06-16T04:30:06.545Z,11.73
2023-06-16T04:32:36.554Z,13.00
2023-06-16T04:35:07.657Z,10.63
2023-06-16T04:37:37.437Z,10.65
2023-06-16T04:40:11.910Z,11.30
2023-06-16T04:42:41.575Z,10.82
2023-06-16T04:45:12.099Z,15.80
2023-06-16T04:47:42.976Z,11.50
2023-06-16T04:50:13.725Z,14.05
2023-06-16T04:52:43.736Z,16.77
2023-06-16T04:55:17.865Z,14.13
2023-06-16T04:57:47.894Z,14.73
2023-06-16T05:00:19.482Z,13.18
2023-06-16T05:02:49.400Z,14.07
2023-06-16T05:05:19.271Z,15.05
2023-06-16T05:07:48.914Z,17.92
2023-06-16T05:10:21.474Z,13.27
2023-06-16T05:12:52.380Z,10.50
2023-06-16T05:15:22.026Z,14.18
2023-06-16T05:17:51.812Z,11.23
2023-06-16T05:20:21.750Z,10.48
2023-06-16T05:22:51.395Z,11.50
2023-06-16T05:25:23.730Z,12.98
2023-06-16T05:27:53.353Z,9.73
2023-06-16T05:30:23.043Z,8.75
2023-06-16T05:32:52.738Z,9.10
2023-06-16T05:35:22.463Z,11.10
2023-06-16T05:37:52.489Z,10.73
2023-06-16T05:40:24.699Z,10.82
2023-06-16T05:42:54.339Z,18.02
2023-06-16T05:45:24.282Z,9.57
2023-06-16T05:47:53.958Z,10.68
2023-06-16T05:50:23.806Z,10.68
2023-06-16T05:52:53.493Z,9.85
2023-06-16T05:55:25.916Z,8.13
2023-06-16T05:57:55.588Z,9.48
2023-06-16T06:00:25.354Z,9.63
2023-06-16T06:02:55.067Z,8.13
2023-06-16T06:05:25.686Z,11.75
2023-06-16T06:07:55.284Z,14.38
2023-06-16T06:10:27.719Z,10.52
2023-06-16T06:12:58.478Z,10.55
2023-06-16T06:15:28.116Z,7.50
2023-06-16T06:17:57.902Z,8.60
2023-06-16T06:20:27.489Z,8.60
2023-06-16T06:22:57.089Z,12.02
2023-06-16T06:25:29.578Z,8.98
2023-06-16T06:27:59.403Z,7.13
2023-06-16T06:30:30.145Z,8.65
2023-06-16T06:33:01.475Z,9.38
2023-06-16T06:35:31.211Z,8.35
2023-06-16T06:38:01.819Z,8.90
2023-06-16T06:40:34.007Z,14.63
2023-06-16T06:43:03.693Z,8.57
2023-06-16T06:45:33.306Z,11.10
2023-06-16T07:09:37.665Z,11.15
2023-06-16T07:12:08.481Z,9.20
2023-06-16T07:14:38.481Z,11.40
2023-06-16T07:17:08.870Z,10.93
2023-06-16T07:19:38.489Z,13.82
2023-06-16T07:22:08.489Z,9.48
2023-06-16T07:24:40.959Z,12.27
2023-06-16T07:27:13.344Z,10.27
2023-06-16T07:29:43.052Z,9.15
2023-06-16T07:32:12.752Z,10.50
2023-06-16T07:34:43.117Z,9.35
2023-06-16T07:37:13.619Z,12.30
2023-06-16T07:39:45.790Z,10.55
2023-06-16T07:42:16.997Z,8.77
2023-06-16T07:44:46.684Z,10.50
2023-06-16T07:47:16.232Z,12.13
2023-06-16T07:49:46.432Z,10.20
2023-06-16T07:52:17.836Z,8.98
2023-06-16T07:54:50.275Z,10.32
2023-06-16T07:57:19.861Z,7.90
2023-06-16T07:59:49.462Z,12.63
2023-06-16T08:02:19.088Z,9.52
2023-06-16T08:04:49.209Z,8.98
2023-06-16T08:07:19.163Z,10.57
2023-06-16T08:09:51.406Z,10.50
2023-06-16T08:12:21.459Z,9.98
2023-06-16T08:14:51.285Z,8.73
2023-06-16T08:17:21.014Z,8.93
2023-06-16T08:19:51.208Z,9.68
2023-06-16T08:22:20.832Z,8.63
2023-06-16T08:24:53.089Z,8.57
2023-06-16T08:27:22.743Z,9.75
2023-06-16T08:29:52.410Z,9.63
2023-06-16T08:32:22.099Z,10.35
2023-06-16T08:34:52.242Z,10.38
2023-06-16T08:37:30.614Z,13.18
2023-06-16T08:40:08.581Z,9.52
2023-06-16T08:42:40.815Z,10.05
2023-06-16T08:45:12.060Z,10.10
2023-06-16T08:47:44.315Z,8.05
2023-06-16T08:50:14.446Z,9.80
2023-06-16T08:52:46.138Z,8.80
2023-06-16T08:55:19.000Z,11.23
2023-06-16T08:57:50.849Z,9.48
2023-06-16T09:00:23.322Z,9.52
2023-06-16T09:02:55.261Z,10.80
2023-06-16T09:05:25.076Z,10.25
2023-06-16T09:07:54.849Z,9.43
2023-06-16T09:10:27.057Z,8.80
2023-06-16T09:12:57.480Z,8.32
2023-06-16T09:18:02.060Z,10.25
2023-06-16T09:20:32.583Z,9.60
2023-06-16T09:23:05.760Z,9.38
2023-06-16T09:25:39.593Z,9.75
2023-06-16T09:28:11.601Z,12.95
2023-06-16T09:30:43.989Z,11.77
2023-06-16T09:33:15.204Z,13.68
2023-06-16T09:35:46.689Z,10.35
2023-06-16T09:38:16.769Z,11.80
2023-06-16T09:40:49.463Z,7.18
2023-06-16T09:43:19.375Z,7.35
2023-06-16T09:45:49.110Z,10.32
2023-06-16T09:48:18.714Z,11.52
2023-06-16T09:50:48.325Z,8.45
2023-06-16T09:53:20.395Z,7.70
2023-06-16T09:55:54.365Z,7.03
2023-06-16T09:58:33.569Z,9.77
2023-06-16T10:01:14.597Z,9.63
2023-06-16T10:03:45.451Z,7.35
2023-06-16T10:06:19.930Z,7.32
2023-06-16T10:08:51.235Z,7.60
2023-06-16T10:11:24.945Z,7.70
2023-06-16T10:13:58.324Z,8.02
2023-06-16T10:16:29.566Z,7.53
2023-06-16T10:19:04.220Z,10.45
2023-06-16T10:21:34.433Z,8.13
2023-06-16T10:24:06.191Z,8.30
2023-06-16T10:26:38.865Z,9.90
2023-06-16T10:29:09.034Z,9.95
2023-06-16T10:31:40.795Z,7.00
2023-06-16T10:34:10.397Z,7.05
2023-06-16T10:36:40.091Z,7.63
2023-06-16T10:39:13.417Z,9.23
2023-06-16T11:09:59.810Z,6.75
2023-06-16T11:12:29.814Z,7.32
2023-06-16T11:14:59.794Z,8.50
2023-06-16T11:17:29.495Z,7.60
2023-06-16T11:20:00.298Z,7.88
2023-06-16T11:22:39.101Z,7.20
2023-06-16T11:25:09.839Z,7.60
2023-06-16T11:27:41.242Z,9.82
2023-06-16T11:30:11.708Z,8.35
2023-06-16T11:32:42.077Z,9.13
2023-06-16T11:35:12.716Z,9.80
2023-06-16T11:37:51.339Z,8.40
2023-06-16T11:40:24.087Z,14.00
2023-06-16T11:42:59.046Z,8.07
2023-06-16T11:45:31.061Z,8.35
2023-06-16T11:48:03.355Z,7.90
2023-06-16T11:50:33.436Z,6.70
2023-06-16T11:53:05.961Z,6.85
2023-06-16T11:55:35.854Z,7.10
2023-06-16T11:58:05.657Z,8.18
2023-06-16T12:00:35.792Z,7.82
2023-06-16T12:03:06.221Z,7.18
2023-06-16T12:05:38.092Z,9.15
2023-06-16T12:08:10.260Z,8.23
2023-06-16T12:10:40.004Z,6.47
2023-06-16T12:13:12.480Z,7.13
2023-06-16T12:15:42.186Z,6.65
2023-06-16T12:18:11.905Z,8.15
2023-06-16T12:20:43.832Z,6.90
2023-06-16T12:23:16.948Z,7.28
2023-06-16T12:25:46.557Z,7.38
2023-06-16T12:28:22.615Z,6.50
2023-06-16T12:30:52.197Z,8.02
2023-06-16T12:33:21.824Z,7.85
2023-06-16T12:35:51.483Z,7.10
2023-06-16T12:38:35.982Z,9.02
2023-06-16T12:41:05.545Z,8.98
2023-06-16T12:43:37.085Z,8.82
2023-06-16T12:46:06.908Z,7.40
2023-06-16T12:48:36.539Z,6.85
2023-06-16T12:51:06.238Z,7.85
2023-06-16T12:53:45.225Z,8.38
2023-06-16T12:56:16.044Z,8.70
2023-06-16T12:58:45.947Z,6.90
2023-06-16T13:01:16.217Z,7.07
2023-06-16T13:03:48.664Z,12.38
2023-06-16T13:06:20.453Z,7.38
2023-06-16T13:08:52.730Z,7.45
2023-06-16T13:11:22.300Z,8.07
2023-06-16T13:13:51.888Z,6.45
2023-06-16T13:16:21.616Z,6.93
2023-06-16T13:18:51.394Z,8.30
2023-06-16T13:21:21.611Z,7.90
2023-06-16T13:23:53.991Z,8.23
2023-06-16T13:26:24.529Z,8.63
2023-06-16T13:28:54.163Z,9.52
2023-06-16T13:31:23.930Z,8.07
2023-06-16T13:33:53.693Z,8.05
2023-06-16T13:36:23.564Z,7.05
2023-06-16T13:38:56.543Z,9.05
2023-06-16T13:41:28.508Z,10.07
2023-06-16T13:43:58.178Z,6.20
2023-06-16T13:46:27.827Z,7.18
2023-06-16T13:48:57.515Z,8.00
2023-06-16T13:51:27.163Z,7.10
2023-06-16T13:53:59.349Z,7.60
2023-06-16T13:56:29.211Z,7.65
2023-06-16T13:58:58.936Z,7.80
2023-06-16T14:01:29.119Z,8.63
2023-06-16T14:03:58.873Z,9.13
2023-06-16T14:06:28.873Z,9.05
2023-06-16T14:09:01.075Z,7.60
2023-06-16T14:11:30.732Z,8.60
2023-06-16T14:14:00.390Z,8.38
2023-06-16T14:16:30.165Z,8.70
2023-06-16T14:19:01.304Z,9.27
2023-06-16T14:21:32.545Z,8.45
2023-06-16T14:24:04.790Z,8.05
2023-06-16T14:26:34.417Z,7.57
2023-06-16T14:29:04.028Z,7.38
2023-06-16T14:31:33.736Z,10.25
2023-06-16T14:34:03.418Z,6.93
2023-06-16T14:36:33.098Z,9.25
2023-06-16T14:39:06.700Z,8.88
2023-06-16T14:41:38.386Z,9.40
2023-06-16T14:44:08.372Z,9.23
2023-06-16T14:46:38.053Z,8.73
2023-06-16T14:49:07.696Z,10.55
2023-06-16T14:51:38.416Z,7.20
2023-06-16T14:54:10.678Z,7.03
2023-06-16T14:56:40.980Z,7.60
2023-06-16T14:59:10.726Z,7.30
2023-06-16T15:01:40.344Z,7.28
2023-06-16T15:04:10.159Z,10.00
2023-06-16T15:06:40.712Z,7.63
2023-06-16T15:09:13.685Z,10.13
2023-06-16T15:11:45.033Z,7.90
2023-06-16T15:14:15.846Z,9.60
2023-06-16T15:16:45.445Z,7.35
2023-06-16T15:19:15.128Z,12.95
2023-06-16T15:21:44.699Z,11.15
2023-06-16T15:24:16.922Z,7.47
2023-06-16T15:26:46.817Z,10.43
2023-06-16T15:29:20.591Z,8.65
2023-06-16T15:31:54.628Z,7.18
2023-06-16T15:34:24.910Z,7.53
2023-06-16T15:36:54.761Z,7.28
2023-06-16T15:39:27.036Z,10.48
2023-06-16T15:41:57.084Z,8.00
2023-06-16T15:44:26.686Z,12.70
2023-06-16T15:46:56.282Z,6.30
2023-06-16T15:49:25.989Z,10.27
2023-06-16T15:51:57.940Z,10.05
2023-06-16T15:54:30.097Z,9.00
2023-06-16T15:57:01.194Z,9.93
2023-06-16T15:59:30.889Z,12.80
2023-06-16T16:02:00.764Z,9.75
2023-06-16T16:04:31.364Z,6.70
2023-06-16T16:07:01.850Z,7.40
2023-06-16T16:09:34.149Z,8.48
2023-06-16T16:12:03.907Z,8.88
2023-06-16T16:14:33.536Z,13.07
2023-06-16T16:17:03.208Z,7.75
2023-06-16T16:19:32.882Z,6.90
2023-06-16T16:22:02.438Z,7.65
2023-06-16T16:24:34.731Z,6.72
2023-06-16T16:27:04.797Z,7.90
2023-06-16T16:29:35.620Z,8.20
2023-06-16T16:32:05.570Z,6.75
2023-06-16T16:34:35.259Z,7.03
2023-06-16T16:37:05.190Z,9.10
2023-06-16T16:39:37.586Z,7.88
2023-06-16T16:42:07.623Z,7.32
2023-06-16T16:44:37.273Z,5.60
2023-06-16T16:47:07.667Z,6.25
2023-06-16T16:49:37.253Z,6.63
2023-06-16T16:52:07.493Z,6.07
2023-06-16T16:54:39.824Z,6.38
2023-06-16T16:57:09.898Z,11.07
2023-06-16T16:59:39.542Z,6.60
2023-06-16T17:02:10.117Z,8.18
2023-06-16T17:04:39.846Z,6.15
2023-06-16T17:07:09.958Z,7.25
2023-06-16T17:09:42.229Z,9.82
2023-06-16T17:12:12.966Z,9.18
2023-06-16T17:14:42.515Z,8.15
2023-06-16T17:17:12.155Z,7.72
2023-06-16T17:19:41.744Z,8.18
2023-06-16T17:22:11.441Z,7.35
2023-06-16T17:24:43.632Z,7.18
2023-06-16T17:27:13.348Z,7.18
2023-06-16T17:29:43.114Z,7.57
2023-06-16T17:32:12.732Z,7.43
2023-06-16T17:34:42.724Z,8.90
2023-06-16T17:37:12.384Z,7.90
2023-06-16T17:39:44.640Z,8.38
2023-06-16T17:42:14.608Z,7.63
2023-06-16T17:44:46.166Z,8.80
2023-06-16T17:47:15.869Z,9.77
2023-06-16T17:49:45.568Z,8.98
2023-06-16T17:52:15.176Z,8.23
2023-06-16T17:54:47.364Z,7.63
2023-06-16T17:57:16.977Z,8.80
2023-06-16T17:59:46.811Z,9.98
2023-06-16T18:02:16.739Z,9.18
2023-06-16T18:04:47.058Z,7.80
2023-06-16T18:07:16.702Z,9.43
2023-06-16T18:09:49.173Z,8.48
2023-06-16T18:12:18.904Z,9.15
2023-06-16T18:14:48.577Z,7.60
2023-06-16T18:17:18.323Z,9.40
2023-06-16T18:19:48.481Z,8.88
2023-06-16T18:22:18.130Z,10.10
2023-06-16T18:24:50.560Z,8.35
2023-06-16T18:27:20.226Z,9.30
2023-06-16T18:29:52.617Z,8.55
2023-06-16T18:32:22.696Z,9.85
2023-06-16T18:34:52.355Z,9.98
2023-06-16T18:37:22.016Z,8.13
2023-06-16T18:39:54.199Z,10.20
2023-06-16T18:42:24.482Z,9.23
2023-06-16T18:44:54.291Z,8.95
2023-06-16T18:47:24.137Z,8.88
2023-06-16T18:49:56.121Z,9.13
2023-06-16T18:52:26.732Z,9.70
2023-06-16T18:54:59.759Z,12.05
2023-06-16T18:57:29.538Z,8.95
2023-06-16T18:59:59.278Z,9.15
2023-06-16T19:02:29.224Z,8.57
2023-06-16T19:04:59.087Z,12.98
2023-06-16T19:07:28.934Z,9.88
2023-06-16T19:10:01.110Z,9.50
2023-06-16T19:12:30.898Z,8.52
2023-06-16T19:15:00.548Z,10.38
2023-06-16T19:17:30.288Z,11.50
2023-06-16T19:19:59.973Z,9.90
2023-06-16T19:22:29.606Z,12.48
2023-06-16T19:25:02.753Z,11.20
2023-06-16T19:27:32.349Z,10.50
2023-06-16T19:30:02.123Z,11.70
2023-06-16T19:32:32.441Z,11.50
2023-06-16T19:35:02.090Z,10.25
2023-06-16T19:37:34.387Z,9.77
2023-06-16T19:40:09.371Z,10.77
2023-06-16T19:42:39.047Z,9.55
2023-06-16T19:45:10.224Z,12.25
2023-06-16T19:47:39.883Z,9.50
2023-06-16T19:50:10.857Z,10.70
2023-06-16T19:52:42.243Z,10.63
2023-06-16T19:55:15.876Z,13.07
2023-06-16T19:57:45.429Z,11.20
2023-06-16T20:00:16.127Z,12.00
2023-06-16T20:02:45.974Z,14.38
2023-06-16T20:05:19.687Z,11.05
2023-06-16T20:07:49.454Z,10.45
2023-06-16T20:10:21.814Z,10.35
2023-06-16T20:12:51.595Z,10.63
2023-06-16T20:15:21.375Z,14.82
2023-06-16T20:17:51.091Z,11.82
2023-06-16T20:20:21.944Z,11.50
2023-06-16T20:22:51.726Z,10.30
2023-06-16T20:25:23.998Z,11.68
2023-06-16T20:27:56.149Z,11.27
2023-06-16T20:30:25.931Z,11.32
2023-06-16T20:32:57.724Z,10.85
2023-06-16T20:35:28.202Z,10.13
2023-06-16T20:37:57.988Z,12.35
2023-06-16T20:40:30.260Z,11.20
2023-06-16T20:43:00.037Z,11.35
2023-06-16T20:45:29.701Z,11.77
2023-06-16T20:47:59.851Z,12.35
2023-06-16T20:50:31.537Z,12.80
2023-06-16T20:53:01.301Z,11.77
2023-06-16T20:55:33.544Z,11.50
2023-06-16T20:58:03.376Z,13.30
2023-06-16T21:00:34.026Z,11.57
2023-06-16T21:03:05.663Z,12.18
2023-06-16T21:05:35.617Z,12.07
2023-06-16T21:08:06.304Z,12.88
2023-06-16T21:10:38.642Z,13.93
2023-06-16T21:13:08.743Z,13.40
2023-06-16T21:15:38.385Z,14.48
2023-06-16T21:18:08.204Z,12.73
2023-06-16T21:20:37.841Z,14.70
2023-06-16T21:23:07.448Z,14.80
2023-06-16T21:25:39.743Z,13.82
2023-06-16T21:28:09.519Z,13.93
2023-06-16T21:30:39.687Z,14.52
2023-06-16T21:33:09.540Z,14.15
2023-06-16T21:35:39.268Z,14.38
2023-06-16T21:38:11.542Z,17.15
2023-06-16T21:40:44.261Z,12.23
2023-06-16T21:43:13.863Z,15.90
2023-06-16T21:45:45.677Z,13.73
2023-06-16T21:48:15.355Z,17.08
2023-06-16T21:50:45.017Z,15.82
2023-06-16T21:53:14.603Z,16.80
2023-06-16T21:55:46.807Z,15.15
2023-06-16T21:58:18.589Z,13.60
2023-06-16T22:00:48.222Z,16.70
2023-06-16T22:03:21.086Z,17.27
2023-06-16T22:05:51.099Z,15.15
2023-06-16T22:08:22.304Z,18.15
2023-06-16T22:10:54.568Z,13.95
2023-06-16T22:13:27.195Z,14.55
2023-06-16T22:15:59.262Z,16.63
2023-06-16T22:18:30.711Z,18.48
2023-06-16T22:21:01.597Z,16.20
2023-06-16T22:23:31.261Z,16.08
2023-06-16T22:26:05.248Z,15.73
2023-06-16T22:28:35.947Z,16.02
2023-06-16T22:31:06.456Z,16.25
2023-06-16T22:33:36.456Z,15.80
2023-06-16T22:36:06.244Z,15.60
2023-06-16T22:38:35.896Z,16.88
2023-06-16T22:41:08.393Z,17.60
2023-06-16T22:43:38.061Z,17.00
2023-06-16T22:46:07.776Z,18.75
2023-06-16T22:48:37.419Z,21.73
2023-06-16T22:51:07.102Z,18.50
2023-06-16T22:53:36.705Z,17.23
2023-06-16T22:56:09.202Z,17.80
2023-06-16T22:58:38.879Z,17.33
2023-06-16T23:01:08.575Z,19.30
2023-06-16T23:03:38.646Z,18.60
2023-06-16T23:06:08.481Z,18.05
2023-06-16T23:08:38.203Z,18.50
2023-06-16T23:11:10.364Z,19.60
2023-06-16T23:13:39.949Z,23.15
2023-06-16T23:16:10.177Z,18.60
2023-06-16T23:18:39.798Z,20.40
2023-06-16T23:21:09.580Z,20.95
2023-06-16T23:23:39.250Z,20.10
2023-06-16T23:26:14.930Z,22.35
2023-06-16T23:28:44.894Z,22.20
2023-06-16T23:31:15.950Z,22.17
2023-06-16T23:33:47.008Z,22.23
2023-06-16T23:36:18.227Z,23.10
2023-06-16T23:38:50.013Z,21.98
2023-06-16T23:41:22.366Z,21.02
2023-06-16T23:43:54.805Z,21.20
2023-06-16T23:46:24.490Z,20.02
2023-06-16T23:48:54.162Z,19.65
2023-06-16T23:51:23.767Z,20.20
2023-06-16T23:53:53.371Z,18.45
2023-06-16T23:56:25.578Z,18.92
2023-06-16T23:58:55.349Z,20.48
